createdAt,value
2023-03-13T00:02:36.582Z,6.20
2023-03-13T00:07:41.959Z,7.17
2023-03-13T00:12:47.486Z,8.80
2023-03-13T00:17:52.899Z,10.00
2023-03-13T00:22:58.563Z,9.10
2023-03-13T00:28:03.950Z,10.03
2023-03-13T00:33:10.470Z,12.13
2023-03-13T00:38:15.932Z,12.17
2023-03-13T00:43:21.396Z,12.27
2023-03-13T00:48:27.204Z,12.00
2023-03-13T00:53:32.733Z,12.93
2023-03-13T00:58:40.882Z,12.70
2023-03-13T01:03:49.480Z,12.90
2023-03-13T01:08:55.401Z,12.27
2023-03-13T01:14:03.825Z,13.27
2023-03-13T01:19:15.953Z,13.50
2023-03-13T01:24:24.706Z,13.90
2023-03-13T01:29:30.280Z,15.10
2023-03-13T01:34:37.190Z,13.97
2023-03-13T01:39:42.990Z,15.70
2023-03-13T01:44:54.731Z,15.13
2023-03-13T01:50:01.326Z,15.13
2023-03-13T01:55:27.025Z,15.03
2023-03-13T02:00:36.840Z,12.20
2023-03-13T02:05:45.363Z,13.73
2023-03-13T02:10:57.617Z,14.00
2023-03-13T02:16:04.306Z,13.10
2023-03-13T02:21:43.336Z,14.10
2023-03-13T02:26:49.106Z,12.43
2023-03-13T02:31:55.498Z,13.80
2023-03-13T02:37:02.882Z,13.67
2023-03-13T02:42:09.823Z,12.27
2023-03-13T02:47:24.702Z,12.80
2023-03-13T02:52:38.473Z,12.70
2023-03-13T02:57:44.351Z,13.20
2023-03-13T03:02:49.832Z,12.27
2023-03-13T03:07:55.523Z,11.93
2023-03-13T03:13:01.640Z,11.53
2023-03-13T03:18:08.391Z,11.70
2023-03-13T03:23:14.065Z,13.17
2023-03-13T03:28:19.608Z,10.80
2023-03-13T03:33:25.755Z,10.90
2023-03-13T03:38:32.086Z,10.53
2023-03-13T03:43:37.737Z,10.90
2023-03-13T03:48:44.023Z,10.93
2023-03-13T03:53:50.043Z,11.40
2023-03-13T03:58:55.645Z,10.10
2023-03-13T04:04:03.647Z,10.43
2023-03-13T04:09:11.008Z,9.87
2023-03-13T04:14:16.766Z,9.93
2023-03-13T04:19:23.055Z,8.73
2023-03-13T04:24:29.148Z,8.93
2023-03-13T04:29:35.842Z,8.80
2023-03-13T04:34:43.608Z,8.80
2023-03-13T04:39:56.880Z,8.57
2023-03-13T04:45:04.018Z,9.13
2023-03-13T04:50:27.383Z,8.13
2023-03-13T04:55:52.790Z,8.00
2023-03-13T05:01:06.595Z,8.20
2023-03-13T05:06:16.676Z,7.70
2023-03-13T05:11:36.108Z,7.67
2023-03-13T05:17:12.119Z,8.20
2023-03-13T05:22:34.628Z,7.83
2023-03-13T05:27:59.779Z,7.30
2023-03-13T05:33:06.887Z,6.63
2023-03-13T05:38:23.328Z,6.60
2023-03-13T05:43:46.694Z,6.80
2023-03-13T05:48:53.927Z,6.03
2023-03-13T05:54:01.064Z,6.57
2023-03-13T05:59:24.665Z,6.33
2023-03-13T06:04:38.193Z,6.47
2023-03-13T06:09:43.924Z,6.53
2023-03-13T06:14:49.549Z,6.47
2023-03-13T06:20:02.628Z,5.33
2023-03-13T06:25:08.991Z,5.27
2023-03-13T06:30:14.695Z,4.93
2023-03-13T06:35:20.405Z,4.63
2023-03-13T06:40:25.940Z,5.50
2023-03-13T06:45:31.686Z,4.93
2023-03-13T06:50:42.170Z,4.57
2023-03-13T06:55:49.286Z,4.23
2023-03-13T07:00:54.976Z,4.57
2023-03-13T07:06:01.091Z,5.57
2023-03-13T07:11:09.942Z,4.47
2023-03-13T07:16:16.624Z,3.83
2023-03-13T07:21:22.104Z,4.90
2023-03-13T07:26:27.675Z,4.50
2023-03-13T07:31:34.300Z,4.37
2023-03-13T07:36:41.783Z,3.90
2023-03-13T07:41:47.649Z,4.70
2023-03-13T07:46:54.970Z,5.40
2023-03-13T07:52:00.563Z,4.53
2023-03-13T07:57:06.875Z,4.53
2023-03-13T08:02:17.253Z,5.10
2023-03-13T08:07:22.940Z,4.17
2023-03-13T08:12:28.398Z,4.43
2023-03-13T08:17:33.945Z,4.67
2023-03-13T08:22:39.419Z,4.07
2023-03-13T08:27:45.191Z,4.33
2023-03-13T08:32:50.885Z,5.23
2023-03-13T08:37:56.388Z,3.90
2023-03-13T08:43:01.849Z,4.40
2023-03-13T08:48:07.573Z,5.03
2023-03-13T08:53:13.144Z,4.60
2023-03-13T08:58:19.121Z,5.00
2023-03-13T09:03:24.736Z,4.87
2023-03-13T09:08:31.834Z,3.57
2023-03-13T09:13:39.946Z,3.83
2023-03-13T09:18:46.369Z,3.87
2023-03-13T09:23:52.859Z,3.40
2023-03-13T09:28:58.736Z,4.03
2023-03-13T09:34:05.074Z,3.90
2023-03-13T09:39:10.567Z,3.57
2023-03-13T09:44:24.783Z,3.20
2023-03-13T09:49:37.103Z,3.10
2023-03-13T09:55:06.919Z,3.37
2023-03-13T10:00:24.430Z,2.33
2023-03-13T10:05:31.563Z,2.83
2023-03-13T10:10:42.827Z,3.10
2023-03-13T10:15:57.198Z,3.20
2023-03-13T10:21:08.475Z,2.47
2023-03-13T10:26:20.019Z,2.77
2023-03-13T10:31:37.203Z,2.43
2023-03-13T10:36:46.053Z,3.60
2023-03-13T10:41:53.863Z,2.73
2023-03-13T10:47:02.824Z,2.43
2023-03-13T10:52:09.887Z,2.70
2023-03-13T10:57:20.902Z,3.20
2023-03-13T11:02:36.244Z,2.73
2023-03-13T11:07:41.871Z,3.27
2023-03-13T11:12:51.420Z,3.07
2023-03-13T11:18:08.858Z,2.60
2023-03-13T11:23:23.470Z,4.20
2023-03-13T11:28:47.174Z,4.00
2023-03-13T11:34:26.994Z,3.83
2023-03-13T11:39:47.755Z,4.17
2023-03-13T11:45:11.396Z,4.10
2023-03-13T11:50:29.399Z,4.63
2023-03-13T11:55:42.498Z,5.77
2023-03-13T12:00:55.865Z,5.17
2023-03-13T12:06:27.338Z,4.80
2023-03-13T12:11:32.720Z,2.47
2023-03-13T12:16:47.581Z,3.67
2023-03-13T12:21:55.816Z,3.43
2023-03-13T12:27:04.422Z,2.97
2023-03-13T12:32:37.197Z,3.70
2023-03-13T12:37:59.238Z,3.87
2023-03-13T12:43:07.655Z,3.23
2023-03-13T12:48:37.087Z,4.40
2023-03-13T12:54:08.815Z,3.17
2023-03-13T12:59:23.192Z,3.07
2023-03-13T13:04:31.669Z,3.10
2023-03-13T13:09:40.194Z,2.73
2023-03-13T13:14:54.585Z,2.60
2023-03-13T13:20:00.048Z,2.27
2023-03-13T13:25:30.899Z,2.20
2023-03-13T13:30:37.001Z,1.90
2023-03-13T13:35:42.741Z,1.93
2023-03-13T13:41:11.895Z,1.73
2023-03-13T13:46:37.071Z,1.40
2023-03-13T13:51:44.274Z,1.60
2023-03-13T13:57:13.320Z,1.30
2023-03-13T14:02:27.894Z,1.30
2023-03-13T14:07:39.208Z,1.33
2023-03-13T14:12:50.740Z,1.23
2023-03-13T14:18:14.585Z,1.23
2023-03-13T14:23:35.022Z,1.47
2023-03-13T14:28:43.507Z,1.20
2023-03-13T14:33:49.400Z,1.30
2023-03-13T14:39:00.172Z,1.00
2023-03-13T14:44:20.746Z,1.03
2023-03-13T14:49:30.760Z,1.13
2023-03-13T14:54:42.146Z,1.10
2023-03-13T14:59:48.612Z,1.00
2023-03-13T15:05:01.843Z,0.90
2023-03-13T15:10:28.704Z,1.03
2023-03-13T15:15:34.234Z,0.90
2023-03-13T15:20:39.730Z,1.13
2023-03-13T15:25:45.633Z,1.07
2023-03-13T15:30:53.229Z,1.17
2023-03-13T15:35:59.081Z,1.27
2023-03-13T15:41:05.213Z,1.00
2023-03-13T15:46:16.958Z,0.90
2023-03-13T15:51:23.241Z,0.80
2023-03-13T15:56:32.307Z,0.87
2023-03-13T16:01:38.891Z,1.00
2023-03-13T16:06:44.423Z,0.90
2023-03-13T16:11:50.372Z,1.00
2023-03-13T16:16:56.182Z,1.00
2023-03-13T16:22:01.645Z,1.20
2023-03-13T16:27:16.216Z,1.03
2023-03-13T16:32:23.338Z,1.40
2023-03-13T16:37:28.882Z,1.30
2023-03-13T16:42:34.409Z,1.40
2023-03-13T16:47:40.493Z,1.50
2023-03-13T16:52:46.048Z,1.60
2023-03-13T16:57:52.487Z,1.50
2023-03-13T17:02:58.833Z,1.83
2023-03-13T17:08:04.477Z,1.83
2023-03-13T17:13:09.957Z,1.60
2023-03-13T17:18:15.600Z,1.30
2023-03-13T17:23:21.095Z,1.50
2023-03-13T17:28:26.543Z,1.50
2023-03-13T17:33:32.206Z,1.77
2023-03-13T17:38:37.659Z,1.20
2023-03-13T17:43:44.108Z,1.03
2023-03-13T17:48:52.444Z,1.53
2023-03-13T17:54:01.173Z,1.17
2023-03-13T17:59:09.631Z,1.70
2023-03-13T18:04:15.364Z,1.50
2023-03-13T18:09:23.002Z,2.30
2023-03-13T18:14:28.664Z,1.63
2023-03-13T18:19:34.180Z,1.40
2023-03-13T18:24:39.629Z,1.63
2023-03-13T18:29:46.365Z,1.60
2023-03-13T18:34:51.941Z,1.67
2023-03-13T18:40:00.622Z,1.60
2023-03-13T18:45:07.552Z,1.80
2023-03-13T18:50:31.205Z,1.30
2023-03-13T18:55:36.580Z,1.30
2023-03-13T19:00:42.165Z,1.63
2023-03-13T19:05:47.918Z,1.43
2023-03-13T19:10:53.494Z,1.50
2023-03-13T19:15:59.003Z,1.50
2023-03-13T19:21:04.472Z,1.37
2023-03-13T19:26:12.974Z,2.20
2023-03-13T19:31:18.815Z,1.70
2023-03-13T19:36:25.720Z,1.57
2023-03-13T19:41:31.179Z,1.50
2023-03-13T19:46:38.765Z,1.87
2023-03-13T19:51:45.582Z,1.80
2023-03-13T19:56:53.628Z,1.63
2023-03-13T20:02:00.910Z,1.87
2023-03-13T20:07:06.456Z,2.00
2023-03-13T20:12:11.992Z,1.60
2023-03-13T20:17:17.473Z,1.53
2023-03-13T20:22:23.291Z,2.20
2023-03-13T20:27:28.780Z,1.73
2023-03-13T20:32:34.345Z,2.23
2023-03-13T20:37:40.046Z,2.00
2023-03-13T20:42:45.538Z,3.10
2023-03-13T20:47:51.371Z,2.40
2023-03-13T20:52:56.770Z,2.73
2023-03-13T20:58:02.302Z,2.67
2023-03-13T21:03:07.886Z,2.33
2023-03-13T21:08:14.489Z,1.93
2023-03-13T21:13:19.938Z,1.80
2023-03-13T21:18:25.369Z,1.70
2023-03-13T21:23:31.623Z,1.20
2023-03-13T21:28:37.276Z,1.97
2023-03-13T21:33:43.698Z,1.60
2023-03-13T21:38:50.835Z,1.77
2023-03-13T21:43:56.609Z,2.37
2023-03-13T21:49:02.407Z,1.87
2023-03-13T21:54:08.116Z,2.00
2023-03-13T21:59:13.765Z,2.17
2023-03-13T22:04:19.220Z,1.90
2023-03-13T22:09:24.843Z,2.00
2023-03-13T22:14:30.400Z,2.00
2023-03-13T22:19:35.923Z,1.70
2023-03-13T22:24:41.461Z,2.30
2023-03-13T22:29:47.778Z,3.07
2023-03-13T22:34:53.572Z,3.10
2023-03-13T22:39:58.994Z,2.73
2023-03-13T22:45:05.246Z,3.20
2023-03-13T22:50:12.609Z,3.17
2023-03-13T22:55:18.336Z,2.40
2023-03-13T23:00:23.889Z,2.47
2023-03-13T23:05:30.582Z,2.50
2023-03-13T23:10:37.599Z,2.27
2023-03-13T23:15:59.223Z,2.53
2023-03-13T23:20:50.996Z,1.97
2023-03-13T23:25:56.369Z,2.20
2023-03-13T23:31:03.326Z,2.20
2023-03-13T23:36:14.443Z,2.10
2023-03-13T23:41:21.863Z,2.20
2023-03-13T23:46:27.718Z,1.50
2023-03-13T23:51:33.181Z,2.40
2023-03-13T23:56:38.641Z,2.20
